createdAt,value
2018-12-29T00:00:56.327Z,-1.23
2018-12-29T00:03:25.054Z,-1.17
2018-12-29T00:05:53.569Z,-1.20
2018-12-29T00:08:22.281Z,-1.21
2018-12-29T00:10:50.866Z,-1.19
2018-12-29T00:13:19.606Z,-1.17
2018-12-29T00:15:48.201Z,-1.19
2018-12-29T00:18:16.982Z,-1.33
2018-12-29T00:20:45.598Z,-1.28
2018-12-29T00:23:14.295Z,-1.26
2018-12-29T00:25:42.873Z,-1.32
2018-12-29T00:28:11.439Z,-1.35
2018-12-29T00:30:40.172Z,-1.35
2018-12-29T00:33:09.945Z,-1.37
2018-12-29T00:35:41.242Z,-1.34
2018-12-29T00:38:09.981Z,-1.28
2018-12-29T00:40:38.500Z,-1.26
2018-12-29T00:43:07.300Z,-1.27
2018-12-29T00:45:36.026Z,-1.30
2018-12-29T00:48:04.731Z,-1.36
2018-12-29T00:50:33.372Z,-1.36
2018-12-29T00:53:02.155Z,-1.36
2018-12-29T00:55:30.776Z,-1.40
2018-12-29T00:57:59.683Z,-1.40
2018-12-29T01:00:28.327Z,-1.40
2018-12-29T01:02:57.015Z,-1.53
2018-12-29T01:05:25.738Z,-1.48
2018-12-29T01:07:54.481Z,-1.44
2018-12-29T01:10:23.033Z,-1.44
2018-12-29T01:12:51.858Z,-1.41
2018-12-29T01:15:25.798Z,-1.42
2018-12-29T01:17:57.414Z,-1.48
2018-12-29T01:20:29.049Z,-1.52
2018-12-29T01:23:00.279Z,-1.51
2018-12-29T01:25:29.211Z,-1.56
2018-12-29T01:27:58.228Z,-1.54
2018-12-29T01:30:29.225Z,-1.52
2018-12-29T01:32:58.391Z,-1.58
2018-12-29T01:35:27.298Z,-1.56
2018-12-29T01:37:56.138Z,-1.60
2018-12-29T01:40:24.996Z,-1.59
2018-12-29T01:43:00.179Z,-1.59
2018-12-29T01:45:29.053Z,-1.61
2018-12-29T01:47:58.049Z,-1.65
2018-12-29T01:50:26.973Z,-1.60
2018-12-29T01:52:55.825Z,-1.71
2018-12-29T01:55:24.919Z,-1.75
2018-12-29T01:57:53.587Z,-1.76
2018-12-29T02:00:22.269Z,-1.76
2018-12-29T02:02:51.026Z,-1.77
2018-12-29T02:05:19.837Z,-1.75
2018-12-29T02:07:48.661Z,-1.78
2018-12-29T02:10:17.346Z,-1.80
2018-12-29T02:12:46.035Z,-1.77
2018-12-29T02:15:14.874Z,-1.80
2018-12-29T02:17:43.629Z,-1.80
2018-12-29T02:20:12.660Z,-1.85
2018-12-29T02:22:42.411Z,-1.85
2018-12-29T02:25:13.177Z,-1.89
2018-12-29T02:27:44.625Z,-1.90
2018-12-29T02:30:13.400Z,-1.89
2018-12-29T02:32:48.981Z,-1.87
2018-12-29T02:35:17.955Z,-1.87
2018-12-29T02:37:47.320Z,-1.88
2018-12-29T02:40:20.168Z,-1.90
2018-12-29T02:42:53.628Z,-1.88
2018-12-29T02:45:22.638Z,-1.92
2018-12-29T02:47:52.361Z,-1.89
2018-12-29T02:50:23.646Z,-1.97
2018-12-29T02:52:52.786Z,-2.01
2018-12-29T02:55:23.130Z,-2.01
2018-12-29T02:57:53.924Z,-2.03
2018-12-29T03:00:26.688Z,-2.00
2018-12-29T03:02:55.662Z,-2.08
2018-12-29T03:05:25.110Z,-1.99
2018-12-29T03:07:56.242Z,-2.08
2018-12-29T03:10:25.017Z,-2.09
2018-12-29T03:12:54.123Z,-2.13
2018-12-29T03:15:22.935Z,-2.21
2018-12-29T03:17:52.957Z,-2.25
2018-12-29T03:20:21.633Z,-2.23
2018-12-29T03:22:52.268Z,-2.24
2018-12-29T03:25:21.127Z,-2.28
2018-12-29T03:27:49.769Z,-2.27
2018-12-29T03:30:18.531Z,-2.28
2018-12-29T03:32:49.466Z,-2.37
2018-12-29T03:35:18.169Z,-2.39
2018-12-29T03:37:50.503Z,-2.39
2018-12-29T03:40:19.247Z,-2.40
2018-12-29T03:42:47.928Z,-2.33
2018-12-29T03:45:16.621Z,-2.36
2018-12-29T03:47:55.462Z,-2.41
2018-12-29T03:50:24.218Z,-2.40
2018-12-29T03:52:53.240Z,-2.33
2018-12-29T03:55:23.029Z,-2.32
2018-12-29T03:57:51.723Z,-2.38
2018-12-29T04:00:20.543Z,-2.41
2018-12-29T04:02:50.914Z,-2.37
2018-12-29T04:05:19.488Z,-2.42
2018-12-29T04:07:51.728Z,-2.42
2018-12-29T04:10:21.034Z,-2.41
2018-12-29T04:12:57.219Z,-2.42
2018-12-29T04:15:26.022Z,-2.43
2018-12-29T04:17:56.831Z,-2.37
2018-12-29T04:20:25.581Z,-2.45
2018-12-29T04:22:54.517Z,-2.45
2018-12-29T04:25:24.926Z,-2.46
2018-12-29T04:27:53.658Z,-2.47
2018-12-29T04:30:23.901Z,-2.52
2018-12-29T04:32:52.670Z,-2.62
2018-12-29T04:35:21.532Z,-2.63
2018-12-29T04:37:53.903Z,-2.64
2018-12-29T04:40:22.788Z,-2.60
2018-12-29T04:42:51.505Z,-2.54
2018-12-29T04:45:23.146Z,-2.51
2018-12-29T04:47:51.741Z,-2.56
2018-12-29T04:50:20.554Z,-2.53
2018-12-29T04:52:49.393Z,-2.56
2018-12-29T04:55:18.462Z,-2.59
2018-12-29T04:57:47.165Z,-2.84
2018-12-29T05:00:15.844Z,-2.95
2018-12-29T05:02:46.438Z,-2.89
2018-12-29T05:05:15.158Z,-2.77
2018-12-29T05:07:44.281Z,-2.68
2018-12-29T05:10:12.957Z,-2.65
2018-12-29T05:12:41.741Z,-2.62
2018-12-29T05:15:10.488Z,-2.55
2018-12-29T05:17:39.358Z,-2.53
2018-12-29T05:20:08.539Z,-2.52
2018-12-29T05:22:37.664Z,-2.47
2018-12-29T05:25:06.435Z,-2.45
2018-12-29T05:27:36.297Z,-2.55
2018-12-29T05:30:06.376Z,-2.52
2018-12-29T05:32:36.726Z,-2.64
2018-12-29T05:35:05.471Z,-2.66
2018-12-29T05:37:35.107Z,-2.66
2018-12-29T05:40:06.095Z,-2.64
2018-12-29T05:42:37.454Z,-2.54
2018-12-29T05:45:06.283Z,-2.48
2018-12-29T05:47:35.220Z,-2.46
2018-12-29T05:50:04.686Z,-2.47
2018-12-29T05:52:33.457Z,-2.43
2018-12-29T05:55:03.625Z,-2.41
2018-12-29T05:57:32.325Z,-2.40
2018-12-29T06:00:01.131Z,-2.42
2018-12-29T06:02:30.591Z,-2.45
2018-12-29T06:04:59.344Z,-2.43
2018-12-29T06:07:28.298Z,-2.38
2018-12-29T06:09:59.156Z,-2.40
2018-12-29T06:12:28.192Z,-2.32
2018-12-29T06:14:57.467Z,-2.31
2018-12-29T06:17:28.957Z,-2.30
2018-12-29T06:19:58.592Z,-2.26
2018-12-29T06:22:27.334Z,-2.29
2018-12-29T06:24:56.169Z,-2.28
2018-12-29T06:27:24.744Z,-2.31
2018-12-29T06:29:53.603Z,-2.32
2018-12-29T06:32:22.395Z,-2.30
2018-12-29T06:34:51.297Z,-2.33
2018-12-29T06:37:20.065Z,-2.33
2018-12-29T06:39:48.866Z,-2.23
2018-12-29T06:42:20.205Z,-2.22
2018-12-29T06:44:48.917Z,-2.24
2018-12-29T06:47:17.696Z,-2.20
2018-12-29T06:49:46.503Z,-2.19
2018-12-29T06:52:15.166Z,-2.19
2018-12-29T06:54:44.292Z,-2.17
2018-12-29T06:57:13.688Z,-2.12
2018-12-29T06:59:42.532Z,-2.25
2018-12-29T07:02:11.235Z,-2.24
2018-12-29T07:04:40.121Z,-2.24
2018-12-29T07:07:11.817Z,-2.13
2018-12-29T07:09:42.376Z,-1.99
2018-12-29T07:12:11.745Z,-1.79
2018-12-29T07:14:40.466Z,-1.66
2018-12-29T07:17:09.191Z,-1.54
2018-12-29T07:19:37.936Z,-1.31
2018-12-29T07:22:08.857Z,-1.26
2018-12-29T07:24:37.911Z,-1.48
2018-12-29T07:27:08.874Z,-1.53
2018-12-29T07:29:38.296Z,-1.34
2018-12-29T07:32:07.325Z,-1.03
2018-12-29T07:34:36.110Z,-0.70
2018-12-29T07:37:04.877Z,-0.38
2018-12-29T07:39:36.192Z,-0.15
2018-12-29T07:42:05.602Z,-0.34
2018-12-29T07:44:38.414Z,0.14
2018-12-29T07:47:07.845Z,0.39
2018-12-29T07:49:36.717Z,0.55
2018-12-29T07:52:05.466Z,0.66
2018-12-29T07:54:34.406Z,0.91
2018-12-29T07:57:03.260Z,1.07
2018-12-29T07:59:32.457Z,1.36
2018-12-29T08:02:01.399Z,1.53
2018-12-29T08:04:31.461Z,1.75
2018-12-29T08:07:01.006Z,1.94
2018-12-29T08:09:31.921Z,2.12
2018-12-29T08:12:01.081Z,2.59
2018-12-29T08:14:30.014Z,2.95
2018-12-29T08:17:00.464Z,3.06
2018-12-29T08:19:29.261Z,3.24
2018-12-29T08:21:58.002Z,3.56
2018-12-29T08:24:27.006Z,3.86
2018-12-29T08:26:56.012Z,3.88
2018-12-29T08:29:24.735Z,4.05
2018-12-29T08:31:53.669Z,4.48
2018-12-29T08:34:22.569Z,4.66
2018-12-29T08:36:51.683Z,4.88
2018-12-29T08:39:20.446Z,4.89
2018-12-29T08:41:49.298Z,4.93
2018-12-29T08:44:18.323Z,5.09
2018-12-29T08:46:47.198Z,5.46
2018-12-29T08:49:18.673Z,5.70
2018-12-29T08:51:47.394Z,5.76
2018-12-29T08:54:16.237Z,5.93
2018-12-29T08:56:45.069Z,6.18
2018-12-29T08:59:15.636Z,6.29
2018-12-29T09:01:44.365Z,6.40
2018-12-29T09:04:13.091Z,6.70
2018-12-29T09:06:41.855Z,7.10
2018-12-29T09:09:15.118Z,7.34
2018-12-29T09:11:44.013Z,7.73
2018-12-29T09:14:12.711Z,7.86
2018-12-29T09:16:42.460Z,7.74
2018-12-29T09:19:11.128Z,7.89
2018-12-29T09:21:39.809Z,8.30
2018-12-29T09:24:08.469Z,8.34
2018-12-29T09:26:37.392Z,8.45
2018-12-29T09:29:06.251Z,8.56
2018-12-29T09:31:34.986Z,8.88
2018-12-29T09:34:03.636Z,9.25
2018-12-29T09:36:37.050Z,9.35
2018-12-29T09:39:07.392Z,9.26
2018-12-29T09:41:36.136Z,9.54
2018-12-29T09:44:04.675Z,9.13
2018-12-29T09:46:33.567Z,9.26
2018-12-29T09:49:02.187Z,9.73
2018-12-29T09:51:30.821Z,9.38
2018-12-29T09:53:59.527Z,8.88
2018-12-29T09:56:31.412Z,8.75
2018-12-29T09:59:00.114Z,9.40
2018-12-29T10:01:28.863Z,9.48
2018-12-29T10:03:57.469Z,9.49
2018-12-29T10:06:30.655Z,9.01
2018-12-29T10:09:02.762Z,9.57
2018-12-29T10:11:32.710Z,10.08
2018-12-29T10:14:01.669Z,9.59
2018-12-29T10:16:32.208Z,10.06
2018-12-29T10:19:01.930Z,9.72
2018-12-29T10:21:30.708Z,10.09
2018-12-29T10:23:59.743Z,10.53
2018-12-29T10:26:31.035Z,10.74
2018-12-29T10:29:01.614Z,9.83
2018-12-29T10:31:30.364Z,10.49
2018-12-29T10:34:02.066Z,11.04
2018-12-29T10:36:33.591Z,11.35
2018-12-29T10:39:03.097Z,10.94
2018-12-29T10:41:32.567Z,11.14
2018-12-29T10:44:02.797Z,11.50
2018-12-29T10:46:31.957Z,11.19
2018-12-29T10:49:01.163Z,10.87
2018-12-29T10:51:29.947Z,9.84
2018-12-29T10:53:58.961Z,9.76
2018-12-29T10:56:29.459Z,9.33
2018-12-29T10:58:58.227Z,9.06
2018-12-29T11:01:26.899Z,9.25
2018-12-29T11:03:55.688Z,8.87
2018-12-29T11:06:24.318Z,8.63
2018-12-29T11:08:53.033Z,8.35
2018-12-29T11:11:24.655Z,8.60
2018-12-29T11:13:56.343Z,8.62
2018-12-29T11:16:29.970Z,8.57
2018-12-29T11:18:59.476Z,8.38
2018-12-29T11:21:28.742Z,8.28
2018-12-29T11:23:57.836Z,8.38
2018-12-29T11:26:27.316Z,8.60
2018-12-29T11:28:56.522Z,8.80
2018-12-29T11:31:25.813Z,8.71
2018-12-29T11:33:56.498Z,8.46
2018-12-29T11:36:27.207Z,8.30
2018-12-29T11:38:57.706Z,8.36
2018-12-29T11:41:26.432Z,8.50
2018-12-29T11:43:58.044Z,8.45
2018-12-29T11:46:30.172Z,8.60
2018-12-29T11:48:59.270Z,8.64
2018-12-29T11:51:28.136Z,8.60
2018-12-29T11:53:57.294Z,8.64
2018-12-29T11:56:26.503Z,8.47
2018-12-29T11:58:55.809Z,8.45
2018-12-29T12:01:25.855Z,8.47
2018-12-29T12:03:54.905Z,8.28
2018-12-29T12:06:23.581Z,8.14
2018-12-29T12:08:53.159Z,8.06
2018-12-29T12:11:22.452Z,7.80
2018-12-29T12:13:52.647Z,7.84
2018-12-29T12:16:22.036Z,7.70
2018-12-29T12:18:50.744Z,7.53
2018-12-29T12:21:20.947Z,7.37
2018-12-29T12:23:50.927Z,7.30
2018-12-29T12:26:23.199Z,7.28
2018-12-29T12:28:52.843Z,7.07
2018-12-29T12:31:22.084Z,7.06
2018-12-29T12:33:51.103Z,6.96
2018-12-29T12:36:20.481Z,6.84
2018-12-29T12:38:49.466Z,6.90
2018-12-29T12:41:21.740Z,6.89
2018-12-29T12:43:50.474Z,6.89
2018-12-29T12:46:19.727Z,6.70
2018-12-29T12:48:49.070Z,6.83
2018-12-29T12:51:18.229Z,6.91
2018-12-29T12:53:47.756Z,6.74
2018-12-29T12:56:16.578Z,6.78
2018-12-29T12:58:48.713Z,6.78
2018-12-29T13:01:17.960Z,6.75
2018-12-29T13:03:46.733Z,6.80
2018-12-29T13:06:16.386Z,6.80
2018-12-29T13:08:45.107Z,6.70
2018-12-29T13:11:14.372Z,6.50
2018-12-29T13:13:43.549Z,6.57
2018-12-29T13:16:12.523Z,6.55
2018-12-29T13:18:41.187Z,6.51
2018-12-29T13:21:10.071Z,6.58
2018-12-29T13:23:39.073Z,6.47
2018-12-29T13:26:08.046Z,6.45
2018-12-29T13:28:37.148Z,6.44
2018-12-29T13:31:06.875Z,6.47
2018-12-29T13:33:35.840Z,6.56
2018-12-29T13:36:05.309Z,6.66
2018-12-29T13:38:33.955Z,6.54
2018-12-29T13:41:03.035Z,6.62
2018-12-29T13:43:31.886Z,6.39
2018-12-29T13:46:00.516Z,6.53
2018-12-29T13:48:29.261Z,6.51
2018-12-29T13:50:59.392Z,6.55
2018-12-29T13:53:32.966Z,6.56
2018-12-29T13:56:01.715Z,6.57
2018-12-29T13:58:30.387Z,6.55
2018-12-29T14:00:59.373Z,6.35
2018-12-29T14:03:28.308Z,6.14
2018-12-29T14:05:57.704Z,6.27
2018-12-29T14:08:27.122Z,6.30
2018-12-29T14:10:57.258Z,6.28
2018-12-29T14:13:26.374Z,6.38
2018-12-29T14:15:55.123Z,6.42
2018-12-29T14:18:28.408Z,6.39
2018-12-29T14:20:57.143Z,6.35
2018-12-29T14:23:26.414Z,6.29
2018-12-29T14:25:55.352Z,6.32
2018-12-29T14:28:24.418Z,6.35
2018-12-29T14:30:53.228Z,6.35
2018-12-29T14:33:22.236Z,6.31
2018-12-29T14:35:51.194Z,6.31
2018-12-29T14:38:20.346Z,6.30
2018-12-29T14:40:52.474Z,6.20
2018-12-29T14:43:21.375Z,6.18
2018-12-29T14:45:50.197Z,6.16
2018-12-29T14:48:19.237Z,6.07
2018-12-29T14:50:48.060Z,6.03
2018-12-29T14:53:16.874Z,6.04
2018-12-29T14:55:48.184Z,6.02
2018-12-29T14:58:17.549Z,6.00
2018-12-29T15:00:49.060Z,5.91
2018-12-29T15:03:20.651Z,5.83
2018-12-29T15:05:49.721Z,5.73
2018-12-29T15:08:19.358Z,5.61
2018-12-29T15:10:48.283Z,5.56
2018-12-29T15:13:17.484Z,5.43
2018-12-29T15:15:46.357Z,5.21
2018-12-29T15:18:15.830Z,5.06
2018-12-29T15:20:45.210Z,4.96
2018-12-29T15:23:17.025Z,4.88
2018-12-29T15:25:54.359Z,4.79
2018-12-29T15:28:23.622Z,4.70
2018-12-29T15:30:55.632Z,4.65
2018-12-29T15:33:31.160Z,4.50
2018-12-29T15:36:15.842Z,4.19
2018-12-29T15:38:39.198Z,3.94
2018-12-29T15:41:14.025Z,3.73
2018-12-29T15:43:45.543Z,3.64
2018-12-29T15:46:14.482Z,3.66
2018-12-29T15:48:50.837Z,3.63
2018-12-29T15:51:18.978Z,3.55
2018-12-29T15:54:04.445Z,3.47
2018-12-29T15:56:40.112Z,3.40
2018-12-29T15:59:09.594Z,3.37
2018-12-29T16:01:39.791Z,3.32
2018-12-29T16:04:09.160Z,3.22
2018-12-29T16:06:37.941Z,3.10
2018-12-29T16:09:07.857Z,3.04
2018-12-29T16:11:36.821Z,2.94
2018-12-29T16:14:07.780Z,2.89
2018-12-29T16:16:38.270Z,2.82
2018-12-29T16:19:07.120Z,2.69
2018-12-29T16:21:37.032Z,2.54
2018-12-29T16:24:06.408Z,2.50
2018-12-29T16:26:35.482Z,2.50
2018-12-29T16:29:04.331Z,2.44
2018-12-29T16:31:33.331Z,2.41
2018-12-29T16:34:02.352Z,2.37
2018-12-29T16:36:31.561Z,2.32
2018-12-29T16:39:00.361Z,2.28
2018-12-29T16:41:29.124Z,2.20
2018-12-29T16:43:58.806Z,2.17
2018-12-29T16:46:27.570Z,2.12
2018-12-29T16:49:06.562Z,2.07
2018-12-29T16:51:29.723Z,1.92
2018-12-29T16:53:58.602Z,1.84
2018-12-29T16:56:28.756Z,1.79
2018-12-29T16:58:57.825Z,1.74
2018-12-29T17:01:26.533Z,1.74
2018-12-29T17:03:55.414Z,1.65
2018-12-29T17:06:27.390Z,1.55
2018-12-29T17:08:56.031Z,1.54
2018-12-29T17:11:24.794Z,1.49
2018-12-29T17:13:56.083Z,1.45
2018-12-29T17:16:25.918Z,1.42
2018-12-29T17:18:56.951Z,1.34
2018-12-29T17:21:26.672Z,1.37
2018-12-29T17:23:55.561Z,1.37
2018-12-29T17:26:24.490Z,1.36
2018-12-29T17:28:53.284Z,1.28
2018-12-29T17:31:23.392Z,1.26
2018-12-29T17:33:54.688Z,1.23
2018-12-29T17:36:23.448Z,1.14
2018-12-29T17:38:52.359Z,1.18
2018-12-29T17:41:21.584Z,1.18
2018-12-29T17:43:50.734Z,1.19
2018-12-29T17:46:20.084Z,1.05
2018-12-29T17:48:48.846Z,1.09
2018-12-29T17:51:17.543Z,1.08
2018-12-29T17:53:48.206Z,0.97
2018-12-29T17:56:20.597Z,0.93
2018-12-29T17:58:49.520Z,1.01
2018-12-29T18:01:18.217Z,0.94
2018-12-29T18:03:46.946Z,0.92
2018-12-29T18:06:17.641Z,0.88
2018-12-29T18:08:46.475Z,0.91
2018-12-29T18:11:15.337Z,0.62
2018-12-29T18:13:44.261Z,0.44
2018-12-29T18:16:14.532Z,0.51
2018-12-29T18:18:43.394Z,0.49
2018-12-29T18:21:12.597Z,0.50
2018-12-29T18:23:41.379Z,0.43
2018-12-29T18:26:10.141Z,0.37
2018-12-29T18:28:38.915Z,0.32
2018-12-29T18:31:07.847Z,0.29
2018-12-29T18:33:39.736Z,0.30
2018-12-29T18:36:11.396Z,0.20
2018-12-29T18:38:40.392Z,0.14
2018-12-29T18:41:09.072Z,0.12
2018-12-29T18:43:37.916Z,0.05
2018-12-29T18:46:06.791Z,-0.01
2018-12-29T18:48:35.763Z,-0.03
2018-12-29T18:51:04.531Z,-0.09
2018-12-29T18:53:33.239Z,-0.10
2018-12-29T18:56:02.097Z,-0.11
2018-12-29T18:58:30.852Z,-0.25
2018-12-29T19:00:59.500Z,-0.21
2018-12-29T19:03:28.330Z,-0.32
2018-12-29T19:05:57.284Z,-0.37
2018-12-29T19:08:26.045Z,-0.41
2018-12-29T19:10:54.824Z,-0.40
2018-12-29T19:13:23.854Z,-0.38
2018-12-29T19:15:52.891Z,-0.40
2018-12-29T19:18:21.650Z,-0.39
2018-12-29T19:20:51.629Z,-0.35
2018-12-29T19:23:20.841Z,-0.39
2018-12-29T19:25:49.940Z,-0.44
2018-12-29T19:28:18.952Z,-0.44
2018-12-29T19:30:47.638Z,-0.45
2018-12-29T19:33:16.707Z,-0.49
2018-12-29T19:35:46.583Z,-0.55
2018-12-29T19:38:15.636Z,-0.57
2018-12-29T19:40:44.742Z,-0.68
2018-12-29T19:43:17.006Z,-0.67
2018-12-29T19:45:47.589Z,-0.68
2018-12-29T19:48:16.420Z,-0.67
2018-12-29T19:50:45.218Z,-0.64
2018-12-29T19:53:14.323Z,-0.68
2018-12-29T19:55:43.013Z,-0.71
2018-12-29T19:58:11.752Z,-0.74
2018-12-29T20:00:40.492Z,-0.77
2018-12-29T20:03:11.272Z,-0.84
2018-12-29T20:05:40.319Z,-0.91
2018-12-29T20:08:09.032Z,-0.90
2018-12-29T20:10:37.669Z,-0.89
2018-12-29T20:13:06.684Z,-0.91
2018-12-29T20:15:35.399Z,-0.94
2018-12-29T20:18:04.127Z,-0.95
2018-12-29T20:20:32.949Z,-0.93
2018-12-29T20:23:02.688Z,-0.93
2018-12-29T20:25:31.717Z,-0.91
2018-12-29T20:28:00.502Z,-0.98
2018-12-29T20:30:29.411Z,-1.07
2018-12-29T20:33:01.003Z,-1.09
2018-12-29T20:35:32.885Z,-1.28
2018-12-29T20:38:01.620Z,-1.23
2018-12-29T20:40:33.546Z,-1.21
2018-12-29T20:43:02.349Z,-1.19
2018-12-29T20:45:31.093Z,-1.18
2018-12-29T20:47:59.917Z,-1.12
2018-12-29T20:50:28.621Z,-1.07
2018-12-29T20:53:00.511Z,-1.08
2018-12-29T20:55:29.374Z,-1.25
2018-12-29T20:57:58.326Z,-1.30
2018-12-29T21:00:27.074Z,-1.27
2018-12-29T21:02:56.132Z,-1.23
2018-12-29T21:05:25.756Z,-1.15
2018-12-29T21:07:54.632Z,-1.15
2018-12-29T21:10:24.428Z,-1.08
2018-12-29T21:12:53.241Z,-1.18
2018-12-29T21:15:22.924Z,-1.16
2018-12-29T21:17:51.839Z,-1.14
2018-12-29T21:20:20.599Z,-1.10
2018-12-29T21:22:49.377Z,-1.13
2018-12-29T21:25:18.172Z,-1.10
2018-12-29T21:27:47.168Z,-1.10
2018-12-29T21:30:16.020Z,-1.08
2018-12-29T21:32:44.977Z,-1.04
2018-12-29T21:35:14.093Z,-1.05
2018-12-29T21:37:43.017Z,-1.03
2018-12-29T21:40:11.810Z,-1.02
2018-12-29T21:42:40.958Z,-0.99
2018-12-29T21:45:12.489Z,-0.93
2018-12-29T21:47:41.289Z,-0.94
2018-12-29T21:50:09.979Z,-0.99
2018-12-29T21:52:38.866Z,-0.95
2018-12-29T21:55:07.646Z,-1.04
2018-12-29T21:57:36.392Z,-1.08
2018-12-29T22:00:09.081Z,-0.98
2018-12-29T22:02:37.755Z,-0.92
2018-12-29T22:05:06.504Z,-0.84
2018-12-29T22:07:35.278Z,-0.85
2018-12-29T22:10:04.325Z,-0.83
2018-12-29T22:12:36.141Z,-0.84
2018-12-29T22:15:07.438Z,-0.77
2018-12-29T22:17:39.144Z,-0.74
2018-12-29T22:20:08.581Z,-0.64
2018-12-29T22:22:37.384Z,-0.65
2018-12-29T22:25:06.192Z,-0.70
2018-12-29T22:27:35.453Z,-0.70
2018-12-29T22:30:05.327Z,-0.70
2018-12-29T22:32:34.070Z,-0.77
2018-12-29T22:35:02.671Z,-0.75
2018-12-29T22:37:31.496Z,-0.82
2018-12-29T22:40:03.306Z,-0.74
2018-12-29T22:42:32.201Z,-0.68
2018-12-29T22:45:01.085Z,-0.67
2018-12-29T22:47:30.275Z,-0.65
2018-12-29T22:49:59.382Z,-0.68
2018-12-29T22:52:28.012Z,-0.63
2018-12-29T22:54:59.504Z,-0.58
2018-12-29T22:57:28.181Z,-0.57
2018-12-29T22:59:57.097Z,-0.65
2018-12-29T23:02:28.756Z,-0.67
2018-12-29T23:04:57.593Z,-0.61
2018-12-29T23:07:26.325Z,-0.65
2018-12-29T23:09:55.121Z,-0.65
2018-12-29T23:12:23.949Z,-0.61
2018-12-29T23:14:52.879Z,-0.62
2018-12-29T23:17:21.648Z,-0.54
2018-12-29T23:19:50.430Z,-0.48
2018-12-29T23:22:19.423Z,-0.47
2018-12-29T23:24:49.225Z,-0.45
2018-12-29T23:27:20.169Z,-0.41
2018-12-29T23:29:49.005Z,-0.38
2018-12-29T23:32:17.920Z,-0.38
2018-12-29T23:34:46.736Z,-0.35
2018-12-29T23:37:15.766Z,-0.36
2018-12-29T23:39:44.561Z,-0.33
2018-12-29T23:42:14.552Z,-0.35
2018-12-29T23:44:43.593Z,-0.30
2018-12-29T23:47:13.793Z,-0.30
2018-12-29T23:49:42.681Z,-0.35
2018-12-29T23:52:11.740Z,-0.32
2018-12-29T23:54:40.629Z,-0.40
2018-12-29T23:57:09.434Z,-0.41
2018-12-29T23:59:38.275Z,-0.48
